| time (UTC) | temp C | wind direction | speed KPH | gust KPH | rain 1hr cm | rain 24hr cm | rain mn cm | humidity % | barometer mb |
| 20260505125004 | 1 | 15 | 4.8 | 20.9 | 0.00 | 0.43 | 0.20 | 95 | 1008.8 |
| 20260505124504 | 1 | 15 | 6.4 | 19.3 | 0.03 | 0.43 | 0.20 | 95 | 1008.5 |
| 20260505124005 | 1 | 15 | 6.4 | 20.9 | 0.03 | 0.43 | 0.20 | 95 | 1008.4 |
| 20260505123504 | 1 | 15 | 8.0 | 19.3 | 0.05 | 0.43 | 0.20 | 95 | 1008.4 |
| 20260505122504 | 2 | 15 | 4.8 | 19.3 | 0.08 | 0.43 | 0.20 | 94 | 1008.1 |
| 20260505121005 | 2 | 237 | 11.3 | 20.9 | 0.13 | 0.43 | 0.20 | 94 | 1008.0 |
| 20260505120505 | 2 | 227 | 9.7 | 16.1 | 0.13 | 0.43 | 0.20 | 94 | 1008.0 |
| 20260505120005 | 2 | 206 | 9.7 | 20.9 | 0.13 | 0.43 | 0.20 | 94 | 1007.8 |
| 20260505115505 | 2 | 15 | 12.9 | 27.4 | 0.13 | 0.43 | 0.20 | 94 | 1007.8 |
| 20260505115005 | 3 | 14 | 9.7 | 19.3 | 0.13 | 0.43 | 0.20 | 94 | 1007.7 |
| 20260505114504 | 3 | 14 | 11.3 | 19.3 | 0.10 | 0.41 | 0.18 | 94 | 1007.6 |
| 20260505114005 | 3 | 15 | 8.0 | 19.3 | 0.10 | 0.41 | 0.18 | 94 | 1007.5 |
| 20260505113505 | 3 | 19 | 14.5 | 22.5 | 0.10 | 0.38 | 0.15 | 94 | 1007.4 |
| 20260505113005 | 3 | 16 | 6.4 | 19.3 | 0.10 | 0.38 | 0.15 | 94 | 1007.4 |
| 20260505112505 | 3 | 15 | 8.0 | 20.9 | 0.08 | 0.36 | 0.13 | 94 | 1007.3 |
| 20260505112005 | 3 | 18 | 11.3 | 22.5 | 0.05 | 0.33 | 0.10 | 94 | 1007.2 |
| 20260505111505 | 4 | 18 | 8.0 | 20.9 | 0.05 | 0.33 | 0.10 | 94 | 1007.2 |
| 20260505110505 | 4 | 16 | 6.4 | 19.3 | 0.03 | 0.30 | 0.08 | 94 | 1007.1 |
| 20260505102005 | 6 | 16 | 0.0 | 0.0 | 0.00 | 0.28 | 0.05 | 93 | 1006.1 |
| 20260505101504 | 6 | 16 | 0.0 | 0.0 | 0.00 | 0.28 | 0.05 | 93 | 1006.1 |
| 20260505100504 | 6 | 16 | 0.0 | 0.0 | 0.00 | 0.28 | 0.05 | 93 | 1006.0 |
| 20260505100004 | 6 | 16 | 0.0 | 0.0 | 0.00 | 0.28 | 0.05 | 93 | 1005.9 |
| 20260505095504 | 6 | 16 | 0.0 | 0.0 | 0.00 | 0.28 | 0.05 | 93 | 1006.0 |
| 20260505095004 | 6 | 16 | 1.6 | 3.2 | 0.00 | 0.28 | 0.05 | 93 | 1006.1 |
| 20260505094504 | 6 | 16 | 3.2 | 4.8 | 0.00 | 0.28 | 0.05 | 93 | 1005.7 |
| 20260505094004 | 6 | 9 | 3.2 | 4.8 | 0.00 | 0.28 | 0.05 | 93 | 1005.3 |
| 20260505093504 | 6 | 9 | 0.0 | 1.6 | 0.00 | 0.28 | 0.05 | 93 | 1005.4 |
| 20260505093004 | 6 | 9 | 0.0 | 3.2 | 0.00 | 0.28 | 0.05 | 93 | 1005.6 |
| 20260505092504 | 6 | 9 | 0.0 | 0.0 | 0.00 | 0.28 | 0.05 | 93 | 1005.9 |
| 20260505091504 | 6 | 9 | 0.0 | 3.2 | 0.00 | 0.28 | 0.05 | 93 | 1006.0 |
| 20260505091005 | 6 | 9 | 0.0 | 1.6 | 0.00 | 0.28 | 0.05 | 93 | 1006.0 |
| 20260505090505 | 6 | 9 | 0.0 | 3.2 | 0.00 | 0.28 | 0.05 | 93 | 1006.0 |
| 20260505090005 | 6 | 12 | 0.0 | 3.2 | 0.00 | 0.28 | 0.05 | 93 | 1006.0 |
| 20260505085505 | 6 | 12 | 0.0 | 3.2 | 0.00 | 0.28 | 0.05 | 92 | 1005.9 |
| 20260505085004 | 6 | 12 | 0.0 | 3.2 | 0.00 | 0.28 | 0.05 | 92 | 1005.9 |
| 20260505084504 | 6 | 12 | 0.0 | 4.8 | 0.00 | 0.28 | 0.05 | 92 | 1005.8 |
| 20260505084004 | 6 | 12 | 1.6 | 3.2 | 0.00 | 0.28 | 0.05 | 92 | 1005.8 |
| 20260505083504 | 6 | 12 | 1.6 | 3.2 | 0.00 | 0.28 | 0.05 | 92 | 1005.7 |
| 20260505083004 | 6 | 12 | 0.0 | 4.8 | 0.00 | 0.28 | 0.05 | 92 | 1005.7 |
| 20260505082004 | 6 | 12 | 0.0 | 3.2 | 0.00 | 0.28 | 0.05 | 92 | 1006.2 |
| 20260505081504 | 6 | 12 | 1.6 | 3.2 | 0.00 | 0.28 | 0.05 | 92 | 1006.4 |
| 20260505080004 | 6 | 12 | 0.0 | 1.6 | 0.00 | 0.28 | 0.05 | 92 | 1006.5 |
| 20260505075504 | 6 | 12 | 0.0 | 1.6 | 0.00 | 0.28 | 0.05 | 92 | 1006.5 |
| 20260505075004 | 6 | 12 | 0.0 | 3.2 | 0.03 | 0.28 | 0.05 | 91 | 1006.6 |
| 20260505074504 | 6 | 12 | 0.0 | 1.6 | 0.03 | 0.28 | 0.05 | 91 | 1006.7 |
| 20260505073505 | 6 | 12 | 1.6 | 4.8 | 0.05 | 0.28 | 0.05 | 91 | 1006.7 |
| 20260505073004 | 6 | 12 | 3.2 | 4.8 | 0.05 | 0.28 | 0.05 | 92 | 1006.8 |
| 20260505072004 | 6 | 13 | 3.2 | 4.8 | 0.05 | 0.28 | 0.05 | 92 | 1007.0 |
| 20260505070504 | 7 | 13 | 1.6 | 4.8 | 0.05 | 0.28 | 0.05 | 93 | 1006.9 |
| 20260505070004 | 7 | 13 | 3.2 | 4.8 | 0.05 | 0.28 | 0.05 | 93 | 1007.0 |
| 20260505065504 | 7 | 15 | 1.6 | 4.8 | 0.05 | 0.28 | 0.05 | 93 | 1007.1 |
| 20260505065004 | 7 | 15 | 0.0 | 4.8 | 0.03 | 0.25 | 0.03 | 93 | 1007.2 |
| 20260505064504 | 7 | 15 | 0.0 | 0.0 | 0.03 | 0.25 | 0.03 | 93 | 1007.3 |
| 20260505064004 | 7 | 15 | 0.0 | 0.0 | 0.00 | 0.23 | 0.00 | 93 | 1007.2 |
| 20260505063504 | 7 | 15 | 0.0 | 0.0 | 0.00 | 0.23 | 0.00 | 93 | 1007.2 |
| 20260505063004 | 7 | 15 | 0.0 | 0.0 | 0.00 | 0.23 | 0.00 | 93 | 1007.3 |
| 20260505062504 | 7 | 15 | 0.0 | 0.0 | 0.00 | 0.23 | 0.00 | 93 | 1007.2 |
| 20260505062004 | 7 | 15 | 0.0 | 0.0 | 0.03 | 0.23 | 0.00 | 93 | 1007.2 |
| 20260505061504 | 7 | 15 | 0.0 | 0.0 | 0.03 | 0.23 | 0.00 | 93 | 1007.2 |
| 20260505061004 | 7 | 15 | 0.0 | 0.0 | 0.03 | 0.23 | 0.00 | 93 | 1007.2 |
| 20260505055005 | 7 | 15 | 0.0 | 0.0 | 0.08 | 0.23 | 0.23 | 93 | 1007.3 |
| 20260505054504 | 7 | 15 | 0.0 | 0.0 | 0.08 | 0.23 | 0.23 | 93 | 1007.2 |
| 20260505054004 | 7 | 15 | 0.0 | 3.2 | 0.08 | 0.23 | 0.23 | 93 | 1007.0 |
| 20260505052504 | 7 | 15 | 0.0 | 0.0 | 0.10 | 0.23 | 0.23 | 92 | 1007.1 |
| 20260505052004 | 7 | 15 | 0.0 | 4.8 | 0.08 | 0.20 | 0.20 | 92 | 1007.3 |
| 20260505051504 | 7 | 15 | 1.6 | 4.8 | 0.08 | 0.20 | 0.20 | 92 | 1007.4 |
| 20260505051004 | 7 | 16 | 3.2 | 12.9 | 0.08 | 0.20 | 0.20 | 92 | 1007.6 |
| 20260505050504 | 7 | 15 | 6.4 | 12.9 | 0.05 | 0.18 | 0.18 | 92 | 1007.7 |
| 20260505041004 | 7 | 15 | 0.0 | 1.6 | 0.08 | 0.13 | 0.13 | 88 | 1007.0 |
| 20260505040504 | 7 | 15 | 0.0 | 1.6 | 0.08 | 0.13 | 0.13 | 88 | 1006.8 |
| 20260505040005 | 7 | 15 | 0.0 | 1.6 | 0.05 | 0.10 | 0.10 | 86 | 1006.7 |
| 20260505035505 | 8 | 15 | 0.0 | 4.8 | 0.05 | 0.10 | 0.10 | 86 | 1006.5 |
| 20260505034504 | 8 | 15 | 0.0 | 4.8 | 0.03 | 0.08 | 0.08 | 85 | 1006.7 |
| 20260505033504 | 8 | 18 | 1.6 | 4.8 | 0.00 | 0.05 | 0.05 | 83 | 1006.7 |
| 20260505033005 | 8 | 15 | 3.2 | 4.8 | 0.00 | 0.05 | 0.05 | 82 | 1006.5 |
| 20260505032504 | 8 | 13 | 1.6 | 11.3 | 0.00 | 0.05 | 0.05 | 79 | 1006.5 |
| 20260505031504 | 9 | 14 | 1.6 | 4.8 | 0.00 | 0.05 | 0.05 | 76 | 1006.2 |
| 20260505030504 | 9 | 13 | 1.6 | 4.8 | 0.00 | 0.05 | 0.05 | 75 | 1006.1 |
| 20260505030006 | 9 | 6 | 0.0 | 1.6 | 0.00 | 0.05 | 0.05 | 77 | 1006.0 |
| 20260505025506 | 9 | 9 | 0.0 | 0.0 | 0.00 | 0.05 | 0.05 | 76 | 1005.9 |
| 20260505025006 | 9 | 8 | 0.0 | 4.8 | 0.00 | 0.05 | 0.05 | 76 | 1005.9 |
| 20260505024506 | 9 | 15 | 0.0 | 0.0 | 0.00 | 0.05 | 0.05 | 74 | 1005.8 |
| 20260505024005 | 10 | 15 | 0.0 | 0.0 | 0.00 | 0.05 | 0.05 | 72 | 1005.7 |
| 20260505022505 | 10 | 15 | 0.0 | 0.0 | 0.00 | 0.05 | 0.05 | 71 | 1005.3 |
| 20260505022006 | 10 | 15 | 0.0 | 0.0 | 0.00 | 0.05 | 0.05 | 70 | 1005.3 |
| 20260505021506 | 10 | 15 | 0.0 | 0.0 | 0.03 | 0.05 | 0.05 | 71 | 1005.2 |
| 20260505020505 | 10 | 15 | 0.0 | 0.0 | 0.05 | 0.05 | 0.05 | 71 | 1005.1 |
| 20260505015506 | 10 | 15 | 0.0 | 1.6 | 0.05 | 0.05 | 0.05 | 69 | 1005.0 |
| 20260505014505 | 10 | 15 | 1.6 | 4.8 | 0.05 | 0.05 | 0.05 | 68 | 1004.9 |
| 20260505013506 | 10 | 16 | 3.2 | 11.3 | 0.05 | 0.05 | 0.05 | 68 | 1004.8 |
| 20260505012506 | 10 | 16 | 0.0 | 4.8 | 0.05 | 0.05 | 0.05 | 67 | 1005.1 |
| 20260505012005 | 10 | 16 | 0.0 | 4.8 | 0.05 | 0.05 | 0.05 | 64 | 1004.9 |
| 20260505011506 | 11 | 16 | 0.0 | 1.6 | 0.03 | 0.03 | 0.03 | 61 | 1005.0 |
| 20260505010505 | 12 | 11 | 8.0 | 19.3 | 0.00 | 0.00 | 0.00 | 54 | 1004.9 |
| 20260505010005 | 12 | 0 | 1.6 | 19.3 | 0.00 | 0.00 | 0.00 | 50 | 1004.8 |
| 20260505005506 | 12 | 13 | 9.7 | 19.3 | 0.00 | 0.00 | 0.00 | 49 | 1004.6 |
| 20260505004505 | 12 | 15 | 3.2 | 8.0 | 0.00 | 0.00 | 0.00 | 46 | 1004.4 |
| 20260505004005 | 12 | 13 | 1.6 | 4.8 | 0.00 | 0.00 | 0.00 | 48 | 1004.2 |
| 20260505003506 | 12 | 13 | 1.6 | 4.8 | 0.00 | 0.00 | 0.00 | 48 | 1004.4 |
| 20260505003006 | 12 | 13 | 0.0 | 4.8 | 0.00 | 0.00 | 0.00 | 48 | 1004.3 |
| 20260505002505 | 12 | 13 | 0.0 | 3.2 | 0.00 | 0.00 | 0.00 | 46 | 1004.3 |
| 20260505002006 | 12 | 13 | 0.0 | 4.8 | 0.00 | 0.00 | 0.00 | 49 | 1004.1 |
| 20260505001506 | 12 | 12 | 0.0 | 1.6 | 0.00 | 0.00 | 0.00 | 51 | 1004.1 |
| 20260505000506 | 12 | 12 | 3.2 | 11.3 | 0.00 | 0.00 | 0.00 | 53 | 1003.9 |
| 20260505000006 | 13 | 11 | 4.8 | 12.9 | 0.00 | 0.00 | 0.00 | 54 | 1003.9 |
| 20260504235505 | 13 | 11 | 0.0 | 8.0 | 0.00 | 0.00 | 0.00 | 51 | 1003.9 |
| 20260504234505 | 13 | 11 | 3.2 | 12.9 | 0.00 | 0.00 | 0.00 | 45 | 1004.0 |
| 20260504233505 | 13 | 0 | 0.0 | 3.2 | 0.00 | 0.00 | 0.00 | 46 | 1003.9 |
| 20260504233005 | 13 | 82 | 0.0 | 8.0 | 0.00 | 0.00 | 0.00 | 48 | 1004.0 |
| 20260504232505 | 14 | 156 | 8.0 | 22.5 | 0.00 | 0.00 | 0.00 | 43 | 1004.0 |
| 20260504232006 | 15 | 96 | 4.8 | 25.7 | 0.00 | 0.00 | 0.00 | 35 | 1003.5 |
| 20260504231506 | 15 | 353 | 9.7 | 32.2 | 0.00 | 0.00 | 0.00 | 33 | 1003.1 |
| 20260504231006 | 16 | 109 | 9.7 | 22.5 | 0.00 | 0.00 | 0.00 | 33 | 1002.9 |
| 20260504230505 | 16 | 351 | 6.4 | 20.9 | 0.00 | 0.00 | 0.00 | 32 | 1002.6 |
| 20260504225006 | 17 | 13 | 4.8 | 12.9 | 0.00 | 0.00 | 0.00 | 26 | 1002.0 |
| 20260504224505 | 17 | 4 | 1.6 | 14.5 | 0.00 | 0.00 | 0.00 | 26 | 1002.0 |
| 20260504223005 | 18 | 10 | 1.6 | 4.8 | 0.00 | 0.00 | 0.00 | 26 | 1001.8 |
| 20260504222506 | 18 | 16 | 4.8 | 14.5 | 0.00 | 0.00 | 0.00 | 25 | 1001.9 |
| 20260504222006 | 18 | 18 | 1.6 | 12.9 | 0.00 | 0.00 | 0.00 | 27 | 1001.9 |
| 20260504221506 | 18 | 5 | 0.0 | 1.6 | 0.00 | 0.00 | 0.00 | 26 | 1001.7 |
| 20260504221005 | 18 | 5 | 0.0 | 3.2 | 0.00 | 0.00 | 0.00 | 26 | 1001.8 |
| 20260504220505 | 18 | 5 | 1.6 | 11.3 | 0.00 | 0.00 | 0.00 | 27 | 1001.8 |
| 20260504220005 | 18 | 17 | 11.3 | 19.3 | 0.00 | 0.00 | 0.00 | 27 | 1001.6 |
| 20260504215006 | 17 | 17 | 1.6 | 8.0 | 0.00 | 0.00 | 0.00 | 27 | 1001.8 |
| 20260504214505 | 17 | 17 | 1.6 | 12.9 | 0.00 | 0.00 | 0.00 | 27 | 1001.9 |
| 20260504214006 | 17 | 12 | 3.2 | 8.0 | 0.00 | 0.00 | 0.00 | 27 | 1002.0 |
| 20260504213505 | 17 | 0 | 4.8 | 14.5 | 0.00 | 0.00 | 0.00 | 27 | 1002.0 |
| 20260504213005 | 17 | 0 | 4.8 | 14.5 | 0.00 | 0.00 | 0.00 | 26 | 1001.9 |
| 20260504212505 | 18 | 0 | 4.8 | 19.3 | 0.00 | 0.00 | 0.00 | 27 | 1001.9 |
| 20260504212006 | 18 | 16 | 8.0 | 19.3 | 0.00 | 0.00 | 0.00 | 27 | 1001.9 |
| 20260504211506 | 18 | 12 | 9.7 | 24.1 | 0.00 | 0.00 | 0.00 | 27 | 1001.8 |
| 20260504211005 | 18 | 16 | 11.3 | 22.5 | 0.00 | 0.00 | 0.00 | 27 | 1001.9 |
| 20260504210505 | 18 | 12 | 6.4 | 16.1 | 0.00 | 0.00 | 0.00 | 26 | 1002.2 |
| 20260504205006 | 18 | 328 | 8.0 | 22.5 | 0.00 | 0.00 | 0.00 | 26 | 1002.0 |
| 20260504203505 | 19 | 12 | 3.2 | 20.9 | 0.00 | 0.00 | 0.00 | 25 | 1002.0 |
| 20260504203006 | 19 | 321 | 6.4 | 19.3 | 0.00 | 0.00 | 0.00 | 24 | 1002.0 |
| 20260504202505 | 18 | 72 | 12.9 | 24.1 | 0.00 | 0.00 | 0.00 | 24 | 1002.0 |
| 20260504202006 | 18 | 250 | 11.3 | 22.5 | 0.00 | 0.00 | 0.00 | 25 | 1002.3 |
| 20260504201505 | 18 | 340 | 1.6 | 12.9 | 0.00 | 0.00 | 0.00 | 25 | 1002.5 |
| 20260504200505 | 18 | 22 | 8.0 | 20.9 | 0.00 | 0.00 | 0.00 | 25 | 1002.6 |
| 20260504200006 | 18 | 19 | 11.3 | 19.3 | 0.00 | 0.00 | 0.00 | 24 | 1002.5 |
| 20260504195506 | 18 | 19 | 11.3 | 22.5 | 0.00 | 0.00 | 0.00 | 24 | 1002.5 |
| 20260504195005 | 18 | 11 | 6.4 | 16.1 | 0.00 | 0.00 | 0.00 | 26 | 1002.6 |
| 20260504194505 | 18 | 15 | 9.7 | 22.5 | 0.00 | 0.00 | 0.00 | 25 | 1002.6 |
| 20260504194005 | 18 | 17 | 8.0 | 19.3 | 0.00 | 0.00 | 0.00 | 26 | 1002.5 |
| 20260504193506 | 18 | 15 | 11.3 | 27.4 | 0.00 | 0.00 | 0.00 | 25 | 1002.5 |
| 20260504193005 | 18 | 2 | 11.3 | 27.4 | 0.00 | 0.00 | 0.00 | 26 | 1002.5 |
| 20260504192505 | 18 | 0 | 11.3 | 24.1 | 0.00 | 0.00 | 0.00 | 25 | 1002.6 |
| 20260504192005 | 18 | 6 | 8.0 | 29.0 | 0.00 | 0.00 | 0.00 | 25 | 1002.4 |
| 20260504191505 | 18 | 12 | 20.9 | 38.6 | 0.00 | 0.00 | 0.00 | 25 | 1002.4 |
| 20260504191005 | 18 | 17 | 16.1 | 25.7 | 0.00 | 0.00 | 0.00 | 22 | 1002.2 |
| 20260504190506 | 19 | 15 | 11.3 | 22.5 | 0.00 | 0.00 | 0.00 | 22 | 1002.1 |
| 20260504190005 | 20 | 348 | 14.5 | 25.7 | 0.00 | 0.00 | 0.00 | 21 | 1002.2 |
| 20260504185505 | 21 | 20 | 8.0 | 20.9 | 0.00 | 0.00 | 0.00 | 17 | 1002.3 |
| 20260504185005 | 21 | 16 | 3.2 | 12.9 | 0.00 | 0.00 | 0.00 | 18 | 1002.4 |
| 20260504184506 | 21 | 312 | 8.0 | 12.9 | 0.00 | 0.00 | 0.00 | 18 | 1002.1 |
| 20260504184005 | 21 | 14 | 4.8 | 19.3 | 0.00 | 0.00 | 0.00 | 18 | 1002.2 |
| 20260504183005 | 20 | 16 | 4.8 | 16.1 | 0.00 | 0.00 | 0.00 | 19 | 1002.4 |
| 20260504182505 | 20 | 223 | 8.0 | 19.3 | 0.00 | 0.00 | 0.00 | 21 | 1002.5 |
| 20260504182005 | 20 | 198 | 8.0 | 12.9 | 0.00 | 0.00 | 0.00 | 20 | 1002.5 |
| 20260504181505 | 20 | 199 | 8.0 | 19.3 | 0.00 | 0.00 | 0.00 | 20 | 1002.6 |
| 20260504181005 | 20 | 195 | 6.4 | 16.1 | 0.00 | 0.00 | 0.00 | 21 | 1002.7 |
| 20260504180505 | 19 | 188 | 3.2 | 14.5 | 0.00 | 0.00 | 0.00 | 21 | 1002.7 |
| 20260504180005 | 19 | 206 | 3.2 | 14.5 | 0.00 | 0.00 | 0.00 | 22 | 1002.8 |
| 20260504175505 | 19 | 322 | 3.2 | 12.9 | 0.00 | 0.00 | 0.00 | 21 | 1002.8 |
| 20260504174005 | 19 | 13 | 4.8 | 12.9 | 0.00 | 0.00 | 0.00 | 21 | 1003.3 |
| 20260504173505 | 18 | 12 | 4.8 | 8.0 | 0.00 | 0.00 | 0.00 | 22 | 1003.3 |
| 20260504173005 | 19 | 13 | 9.7 | 19.3 | 0.00 | 0.00 | 0.00 | 22 | 1003.6 |
| 20260504172506 | 19 | 127 | 4.8 | 11.3 | 0.00 | 0.00 | 0.00 | 22 | 1003.6 |
| 20260504172005 | 19 | 15 | 3.2 | 19.3 | 0.00 | 0.00 | 0.00 | 23 | 1003.6 |
| 20260504171505 | 19 | 17 | 4.8 | 14.5 | 0.00 | 0.00 | 0.00 | 24 | 1003.7 |
| 20260504171005 | 19 | 15 | 11.3 | 32.2 | 0.00 | 0.00 | 0.00 | 23 | 1003.8 |
| 20260504170505 | 19 | 14 | 4.8 | 11.3 | 0.00 | 0.00 | 0.00 | 24 | 1003.8 |
| 20260504141005 | 15 | 0 | 0.0 | 1.6 | 0.00 | 0.00 | 0.00 | 33 | 1005.2 |
| 20260504140505 | 15 | 0 | 0.0 | 0.0 | 0.00 | 0.00 | 0.00 | 32 | 1005.1 |
| 20260504130505 | 10 | 13 | 0.0 | 0.0 | 0.00 | 0.00 | 0.00 | 38 | 1005.2 |